Time;durP1;ratioP1;P1;durP2;ratioP2;P2;SDS_P1;SDS_P2;PMS_P1;PMS_P2;Temp;Humidity;BMP_temperature;BMP_pressure;BME280_temperature;BME280_humidity;BME280_pressure;Samples;Min_cycle;Max_cycle;Signal;HPM_P1;HPM_P2
2022/02/20 01:57:10;;;;;;;4.43;1.63;;;7.30;99.90;;;;;;3159265;23;20244;-86
2022/02/20 02:02:51;;;;;;;5.32;1.50;;;7.10;99.90;;;;;;5046914;28;20210;-87
2022/02/20 02:06:05;;;;;;;8.75;1.30;;;7.10;99.90;;;;;;5042451;28;20202;-88
2022/02/20 02:12:08;;;;;;;4.43;1.38;;;7.20;99.90;;;;;;5056254;28;20214;-89
2022/02/20 02:21:50;;;;;;;5.72;1.25;;;7.30;99.90;;;;;;5041653;28;20476;-89
2022/02/20 02:28:46;;;;;;;;;;;;;;;;;;;;;
2022/02/20 02:32:04;;;;;;;4.10;1.50;;;7.40;99.90;;;;;;5022039;28;20241;-89
2022/02/20 02:35:05;;;;;;;3.10;1.20;;;7.30;99.90;;;;;;5046596;28;20218;-88
2022/02/20 02:55:05;;;;;;;7.00;1.75;;;7.50;99.90;;;;;;5041733;28;20453;-86
2022/02/20 03:03:18;;;;;;;4.20;1.67;;;7.70;99.90;;;;;;5044922;23;20480;-88
2022/02/20 03:19:02;;;;;;;5.30;1.20;;;7.50;99.90;;;;;;4974824;28;20223;-88
2022/02/20 03:25:18;;;;;;;;;;;;;;;;;;;;;
2022/02/20 03:31:34;;;;;;;3.70;1.20;;;7.60;99.90;;;;;;5024935;23;20238;-86
2022/02/20 03:34:45;;;;;;;6.00;1.83;;;7.70;99.90;;;;;;5036502;28;20205;-88
2022/02/20 03:38:15;;;;;;;11.90;1.87;;;7.70;99.90;;;;;;5035272;28;20207;-90
2022/02/20 03:40:42;;;;;;;7.55;2.08;;;7.60;99.90;;;;;;5052729;23;20497;-85
2022/02/20 03:43:09;;;;;;;4.70;1.10;;;7.60;99.90;;;;;;5030625;28;20254;-85
2022/02/20 03:45:39;;;;;;;4.10;1.00;;;7.60;99.90;;;;;;5028769;28;20707;-85
2022/02/20 03:48:06;;;;;;;3.28;1.05;;;7.60;99.90;;;;;;5034516;28;20231;-85
2022/02/20 03:50:34;;;;;;;4.35;1.10;;;7.70;99.90;;;;;;5034630;28;20227;-84
2022/02/20 03:53:01;;;;;;;7.18;1.58;;;7.60;99.90;;;;;;5025602;28;20199;-85
2022/02/20 03:55:28;;;;;;;3.95;1.10;;;7.60;99.90;;;;;;5027159;28;20207;-85
2022/02/20 03:57:55;;;;;;;3.83;1.20;;;7.70;99.90;;;;;;5026307;28;20663;-85
2022/02/20 04:00:24;;;;;;;3.85;1.10;;;7.70;99.90;;;;;;5026436;28;20516;-85
2022/02/20 04:02:51;;;;;;;5.32;1.20;;;7.70;99.90;;;;;;5025580;28;20218;-85
2022/02/20 04:05:19;;;;;;;4.03;1.03;;;7.70;99.90;;;;;;5025847;28;20204;-85
2022/02/20 04:07:48;;;;;;;3.23;0.90;;;7.70;99.90;;;;;;5025932;28;20503;-85
2022/02/20 04:10:15;;;;;;;8.35;1.30;;;7.80;99.90;;;;;;5026445;28;20481;-85
2022/02/20 04:12:44;;;;;;;6.33;1.10;;;7.70;99.90;;;;;;5026096;28;20257;-85
2022/02/20 04:15:11;;;;;;;3.77;1.10;;;7.60;99.90;;;;;;5026385;28;20456;-85
2022/02/20 04:17:40;;;;;;;4.30;0.97;;;7.90;99.90;;;;;;5025532;28;20474;-85
2022/02/20 04:20:08;;;;;;;3.45;1.05;;;7.60;99.90;;;;;;5025571;28;20463;-85
2022/02/20 04:22:35;;;;;;;5.35;1.00;;;7.30;99.90;;;;;;5025968;28;20665;-85
2022/02/20 04:25:04;;;;;;;2.90;0.80;;;7.40;99.90;;;;;;5025535;28;20268;-85
2022/02/20 04:27:30;;;;;;;2.75;0.95;;;7.70;99.90;;;;;;5025415;28;20482;-85
2022/02/20 04:29:57;;;;;;;3.50;1.00;;;7.60;99.90;;;;;;5026168;28;20218;-84
2022/02/20 04:32:24;;;;;;;5.13;1.85;;;7.70;99.90;;;;;;5028348;28;20521;-85
2022/02/20 04:34:51;;;;;;;3.00;0.98;;;7.70;99.90;;;;;;5028348;28;20294;-85
2022/02/20 04:37:18;;;;;;;3.60;0.70;;;7.50;99.90;;;;;;5029271;28;20200;-86
2022/02/20 04:39:45;;;;;;;4.43;1.27;;;7.50;99.90;;;;;;5030378;28;20267;-84
2022/02/20 04:42:13;;;;;;;6.07;0.90;;;7.60;99.90;;;;;;5030004;28;20482;-84
2022/02/20 04:44:40;;;;;;;3.10;0.80;;;7.60;99.90;;;;;;5029981;28;20538;-85
2022/02/20 04:47:07;;;;;;;3.65;0.90;;;7.60;99.90;;;;;;5026700;28;20294;-85
2022/02/20 04:49:34;;;;;;;3.80;1.13;;;7.70;99.90;;;;;;5026814;28;20233;-84
2022/02/20 04:52:01;;;;;;;3.20;0.95;;;7.80;99.90;;;;;;5024993;28;20266;-85
2022/02/20 04:54:27;;;;;;;2.90;0.80;;;7.60;99.90;;;;;;5025407;28;20274;-84
2022/02/20 04:56:54;;;;;;;4.47;0.90;;;7.60;99.90;;;;;;5025480;28;20474;-85
2022/02/20 04:59:22;;;;;;;4.10;0.80;;;7.60;99.90;;;;;;5025456;28;20210;-85
2022/02/20 05:01:49;;;;;;;2.70;0.77;;;7.60;99.90;;;;;;5025338;28;20530;-84
2022/02/20 05:04:16;;;;;;;3.20;0.98;;;7.20;99.90;;;;;;5025033;28;20454;-85
2022/02/20 05:06:43;;;;;;;2.70;0.82;;;7.50;99.90;;;;;;5026843;28;20207;-85
2022/02/20 05:09:10;;;;;;;3.23;0.80;;;7.40;99.90;;;;;;5035345;28;20246;-85
2022/02/20 05:11:37;;;;;;;2.80;0.73;;;7.50;99.90;;;;;;5039424;28;20493;-85
2022/02/20 05:14:04;;;;;;;3.90;0.93;;;7.40;99.90;;;;;;5037304;28;20501;-84
2022/02/20 05:16:32;;;;;;;2.43;0.77;;;7.60;99.90;;;;;;5026688;28;20485;-85
2022/02/20 05:18:59;;;;;;;3.87;0.97;;;7.60;99.90;;;;;;5025834;28;20514;-85
2022/02/20 05:21:26;;;;;;;3.40;0.88;;;7.50;99.90;;;;;;5038696;28;20465;-85
2022/02/20 05:23:53;;;;;;;4.23;1.00;;;7.50;99.90;;;;;;5035647;28;20203;-84
2022/02/20 05:26:20;;;;;;;3.30;1.13;;;7.40;99.90;;;;;;5027751;28;20457;-84
2022/02/20 05:28:47;;;;;;;3.40;0.90;;;7.40;99.90;;;;;;5024807;28;20224;-84
2022/02/20 05:31:14;;;;;;;3.10;1.00;;;7.40;99.90;;;;;;5022868;28;20227;-84
2022/02/20 05:33:42;;;;;;;2.95;0.90;;;7.40;99.90;;;;;;5025421;28;20512;-84
2022/02/20 05:36:12;;;;;;;3.80;1.10;;;7.60;99.90;;;;;;5025799;28;20211;-84
2022/02/20 05:38:39;;;;;;;4.40;1.10;;;7.10;99.90;;;;;;5025879;28;20454;-84
2022/02/20 05:41:06;;;;;;;3.85;1.10;;;7.40;99.90;;;;;;5025596;28;20231;-84
2022/02/20 05:43:33;;;;;;;6.78;1.00;;;7.30;99.90;;;;;;5027037;28;20219;-84
2022/02/20 05:46:00;;;;;;;4.03;1.13;;;7.20;99.90;;;;;;5028617;28;20274;-84
2022/02/20 05:48:27;;;;;;;4.50;1.10;;;6.90;99.90;;;;;;5029965;28;20294;-84
2022/02/20 05:50:55;;;;;;;4.15;1.17;;;7.40;99.90;;;;;;5035448;28;20223;-84
2022/02/20 05:53:22;;;;;;;3.25;0.85;;;7.20;99.90;;;;;;5027623;28;20210;-84
2022/02/20 05:55:49;;;;;;;4.20;1.23;;;6.90;99.90;;;;;;5025843;28;20206;-84
2022/02/20 05:58:17;;;;;;;2.97;0.90;;;7.30;99.90;;;;;;5024737;28;20207;-84
2022/02/20 06:00:44;;;;;;;3.13;0.90;;;7.30;99.90;;;;;;5024587;28;20231;-84
2022/02/20 06:03:11;;;;;;;2.75;0.90;;;7.40;99.90;;;;;;5022963;28;20446;-84
2022/02/20 06:05:38;;;;;;;3.58;1.10;;;7.20;99.90;;;;;;5024573;28;20242;-84
2022/02/20 06:08:08;;;;;;;4.38;0.90;;;7.40;99.90;;;;;;5024967;28;20287;-84
2022/02/20 06:10:35;;;;;;;2.93;0.90;;;7.50;99.90;;;;;;5025488;28;20706;-84
2022/02/20 06:13:02;;;;;;;3.80;1.03;;;7.30;99.90;;;;;;5024251;28;20461;-85
2022/02/20 06:15:30;;;;;;;3.08;0.73;;;7.50;99.90;;;;;;5023210;28;20461;-84
2022/02/20 06:17:57;;;;;;;3.35;0.73;;;7.50;99.90;;;;;;5024468;28;20233;-84
2022/02/20 06:20:24;;;;;;;4.30;1.40;;;7.50;99.90;;;;;;5026659;28;20227;-84
2022/02/20 06:22:51;;;;;;;4.97;0.90;;;7.50;99.90;;;;;;5028127;28;20212;-84
2022/02/20 06:25:19;;;;;;;3.70;0.97;;;7.30;99.90;;;;;;5025684;28;20209;-84
2022/02/20 06:27:46;;;;;;;2.72;1.08;;;7.50;99.90;;;;;;5026238;28;20522;-84
2022/02/20 06:30:13;;;;;;;3.67;1.00;;;7.60;99.90;;;;;;5025992;28;20274;-84
2022/02/20 06:32:40;;;;;;;3.60;0.80;;;7.50;99.90;;;;;;5026119;28;20462;-84
2022/02/20 06:35:07;;;;;;;3.60;1.05;;;7.40;99.90;;;;;;5026460;28;20538;-84
2022/02/20 06:37:34;;;;;;;2.90;1.00;;;7.70;99.90;;;;;;5027082;28;20231;-84
2022/02/20 06:40:01;;;;;;;4.25;0.80;;;7.60;99.90;;;;;;5027684;28;20481;-84
2022/02/20 06:42:29;;;;;;;3.72;0.80;;;7.60;99.90;;;;;;5028125;28;20252;-84
2022/02/20 06:44:56;;;;;;;2.90;1.05;;;7.50;99.90;;;;;;5026628;28;20637;-85
2022/02/20 06:47:23;;;;;;;2.78;0.80;;;7.70;99.90;;;;;;5027100;28;20283;-84
2022/02/20 06:49:50;;;;;;;3.75;1.15;;;7.70;99.90;;;;;;5028310;28;20219;-84
2022/02/20 06:52:17;;;;;;;3.85;0.88;;;7.70;99.90;;;;;;5027360;28;20230;-84
2022/02/20 06:54:44;;;;;;;4.17;0.90;;;7.70;99.90;;;;;;5025573;28;20211;-84
2022/02/20 06:57:11;;;;;;;2.70;0.80;;;7.70;99.90;;;;;;5024751;28;20557;-84
2022/02/20 06:59:39;;;;;;;4.63;0.60;;;7.70;99.90;;;;;;5025234;28;20450;-84
2022/02/20 07:02:06;;;;;;;4.05;0.80;;;7.70;99.90;;;;;;5024376;28;20502;-84
2022/02/20 07:04:33;;;;;;;2.30;0.70;;;7.70;99.90;;;;;;5025403;28;20211;-84
2022/02/20 07:07:00;;;;;;;3.17;0.93;;;7.80;99.90;;;;;;5026312;28;20454;-83
2022/02/20 07:09:27;;;;;;;3.60;0.90;;;7.80;99.90;;;;;;5021859;28;20490;-83
2022/02/20 07:11:54;;;;;;;2.37;0.67;;;7.50;99.90;;;;;;5021805;28;20543;-83
2022/02/20 07:14:20;;;;;;;3.13;0.80;;;7.80;99.90;;;;;;5023567;28;20534;-84
2022/02/20 07:16:49;;;;;;;3.50;0.90;;;7.80;99.90;;;;;;5025948;28;20303;-84
2022/02/20 07:19:16;;;;;;;3.33;0.60;;;7.90;99.90;;;;;;5025751;28;20447;-85
2022/02/20 07:21:43;;;;;;;4.07;0.60;;;7.90;99.90;;;;;;5026956;28;20469;-85
2022/02/20 07:24:11;;;;;;;4.10;1.27;;;7.90;99.90;;;;;;5028085;28;20458;-85
2022/02/20 07:26:38;;;;;;;4.00;0.60;;;7.80;99.90;;;;;;5028130;28;20497;-85
2022/02/20 07:29:05;;;;;;;3.22;0.80;;;7.90;99.90;;;;;;5025873;28;20573;-84
2022/02/20 07:31:32;;;;;;;2.70;0.70;;;7.90;99.90;;;;;;5026488;28;20227;-85
2022/02/20 07:34:00;;;;;;;2.92;0.70;;;8.00;99.90;;;;;;5030801;28;20435;-85
2022/02/20 07:36:27;;;;;;;5.57;1.07;;;8.00;99.90;;;;;;5025314;28;20378;-84
2022/02/20 07:38:54;;;;;;;2.73;0.77;;;8.10;99.90;;;;;;5023318;28;20457;-85
2022/02/20 07:41:20;;;;;;;2.60;0.70;;;8.10;99.90;;;;;;5025369;28;20478;-85
2022/02/20 07:43:49;;;;;;;2.63;1.08;;;8.00;99.90;;;;;;5026461;28;20471;-85
2022/02/20 07:46:17;;;;;;;2.77;0.60;;;8.10;99.90;;;;;;5028164;28;20204;-85
2022/02/20 07:48:45;;;;;;;3.70;1.00;;;8.10;99.90;;;;;;5029683;28;20538;-85
2022/02/20 07:51:13;;;;;;;3.47;0.90;;;8.10;99.90;;;;;;5031352;28;20505;-85
2022/02/20 07:53:42;;;;;;;3.80;0.80;;;8.10;99.90;;;;;;5026533;28;20199;-85
2022/02/20 07:56:09;;;;;;;3.63;0.90;;;8.20;99.90;;;;;;5028410;28;20533;-84
2022/02/20 07:58:37;;;;;;;2.93;0.70;;;8.10;99.90;;;;;;5030110;28;20442;-86
2022/02/20 08:01:05;;;;;;;2.65;0.85;;;8.20;99.90;;;;;;5029196;28;20481;-86
2022/02/20 08:03:32;;;;;;;4.10;1.00;;;8.30;99.90;;;;;;5030548;28;20238;-87
2022/02/20 08:06:00;;;;;;;2.93;1.07;;;8.40;99.90;;;;;;5029254;28;20947;-85
2022/02/20 08:08:29;;;;;;;5.03;1.03;;;8.40;99.90;;;;;;5030959;28;20454;-85
2022/02/20 08:10:55;;;;;;;2.60;0.80;;;8.50;99.90;;;;;;5037429;28;20493;-86
2022/02/20 08:13:22;;;;;;;3.90;1.20;;;8.50;99.90;;;;;;5040102;28;20442;-86
2022/02/20 08:15:49;;;;;;;2.87;0.97;;;8.50;99.90;;;;;;5035607;28;20474;-86
2022/02/20 08:18:17;;;;;;;4.40;1.90;;;8.40;99.90;;;;;;5030699;28;20473;-83
2022/02/20 08:20:44;;;;;;;2.80;1.10;;;8.30;99.90;;;;;;5032397;28;20474;-84
2022/02/20 08:23:12;;;;;;;3.80;0.77;;;8.40;99.90;;;;;;5032630;28;20451;-84
2022/02/20 08:25:40;;;;;;;3.27;0.80;;;8.30;99.90;;;;;;5031663;28;20923;-85
2022/02/20 08:28:08;;;;;;;5.33;1.60;;;8.40;99.90;;;;;;5032917;28;20432;-85
2022/02/20 08:30:37;;;;;;;2.93;0.90;;;8.40;99.90;;;;;;5028314;28;20494;-86
2022/02/20 08:33:05;;;;;;;2.90;0.97;;;8.60;99.90;;;;;;5029708;28;20446;-86
2022/02/20 08:35:33;;;;;;;4.10;0.90;;;8.60;99.90;;;;;;5034202;28;20468;-84
2022/02/20 08:38:01;;;;;;;3.10;0.90;;;8.70;99.90;;;;;;5037547;28;20450;-84
2022/02/20 08:40:28;;;;;;;3.87;0.90;;;8.70;99.90;;;;;;5027613;28;20577;-85
2022/02/20 08:42:57;;;;;;;4.53;1.20;;;8.70;99.90;;;;;;5026335;28;20481;-85
2022/02/20 08:45:24;;;;;;;3.53;1.30;;;8.70;99.90;;;;;;5027067;28;20469;-86
2022/02/20 08:47:50;;;;;;;3.30;1.10;;;8.80;99.90;;;;;;5027250;28;20451;-85
2022/02/20 08:50:17;;;;;;;2.80;1.10;;;8.80;99.90;;;;;;5026972;28;20529;-85
2022/02/20 08:52:46;;;;;;;3.73;0.93;;;8.90;99.90;;;;;;5027040;28;20447;-85
2022/02/20 08:55:13;;;;;;;4.37;1.07;;;8.90;99.90;;;;;;5025601;28;20958;-83
2022/02/20 08:57:41;;;;;;;3.10;1.37;;;8.90;99.90;;;;;;5027773;28;20885;-85
2022/02/20 09:00:11;;;;;;;3.57;1.10;;;9.00;99.90;;;;;;5027653;28;20454;-85
2022/02/20 09:02:38;;;;;;;4.10;1.00;;;9.10;99.90;;;;;;5026991;28;20529;-85
2022/02/20 09:05:07;;;;;;;2.60;0.83;;;9.30;99.90;;;;;;5027067;28;20458;-83
2022/02/20 09:07:34;;;;;;;2.60;0.80;;;9.40;99.90;;;;;;5028053;28;20442;-82
2022/02/20 09:10:04;;;;;;;3.47;1.33;;;9.40;99.90;;;;;;5027816;28;20509;-85
2022/02/20 09:12:31;;;;;;;2.80;0.90;;;9.50;99.90;;;;;;5025496;28;20550;-84
2022/02/20 09:14:57;;;;;;;3.13;0.80;;;9.50;99.90;;;;;;5022193;28;20442;-84
2022/02/20 09:17:26;;;;;;;3.37;1.00;;;9.50;99.90;;;;;;5020979;28;20533;-84
2022/02/20 09:19:53;;;;;;;7.20;1.20;;;9.60;99.90;;;;;;5023181;28;20454;-84
2022/02/20 09:22:19;;;;;;;3.20;1.00;;;9.80;99.90;;;;;;5023045;28;20513;-84
2022/02/20 09:24:46;;;;;;;3.23;1.10;;;9.80;99.90;;;;;;5023446;28;20438;-84
2022/02/20 09:27:13;;;;;;;3.93;1.00;;;9.90;99.90;;;;;;5027489;28;20454;-84
2022/02/20 09:29:40;;;;;;;4.57;1.10;;;9.90;99.90;;;;;;5029796;28;20490;-84
2022/02/20 09:32:08;;;;;;;3.73;1.00;;;10.00;99.90;;;;;;5030083;28;20498;-84
2022/02/20 09:34:36;;;;;;;3.63;0.70;;;9.90;99.90;;;;;;5026601;28;20959;-84
2022/02/20 09:37:04;;;;;;;2.50;0.80;;;9.80;99.90;;;;;;5025518;28;20450;-84
2022/02/20 09:39:31;;;;;;;2.93;0.80;;;10.00;99.90;;;;;;5027313;28;20509;-84
2022/02/20 09:41:58;;;;;;;2.70;0.70;;;9.90;99.90;;;;;;5030084;28;20497;-84
2022/02/20 09:44:29;;;;;;;2.53;0.70;;;9.80;99.90;;;;;;5079802;23;20595;-88
2022/02/20 09:47:00;;;;;;;5.07;0.97;;;9.90;99.90;;;;;;5043764;28;20418;-88
2022/02/20 09:49:29;;;;;;;2.70;0.87;;;10.00;99.90;;;;;;5044418;28;20497;-88
2022/02/20 09:52:06;;;;;;;3.80;0.90;;;10.00;99.90;;;;;;5045031;28;20480;-89
2022/02/20 09:54:38;;;;;;;3.37;1.00;;;10.10;99.90;;;;;;5044197;28;20504;-89
2022/02/20 09:57:11;;;;;;;2.53;0.77;;;10.30;99.90;;;;;;5045240;28;20454;-89
2022/02/20 09:59:54;;;;;;;2.80;1.07;;;10.40;99.90;;;;;;5044743;28;20424;-89
2022/02/20 10:02:25;;;;;;;2.80;0.87;;;10.50;99.90;;;;;;5044063;28;20451;-89
2022/02/20 10:04:58;;;;;;;5.00;0.93;;;10.50;99.90;;;;;;5050271;28;20454;-89
2022/02/20 10:39:40;;;;;;;4.63;0.80;;;10.60;99.90;;;;;;5025283;28;20462;-91
2022/02/20 10:42:39;;;;;;;2.70;0.60;;;10.70;99.90;;;;;;4903624;29;20496;-89
2022/02/20 10:46:09;;;;;;;2.90;0.70;;;10.50;99.90;;;;;;4886645;29;20445;-88
2022/02/20 10:48:49;;;;;;;5.23;0.87;;;10.60;99.90;;;;;;4966213;28;20454;-87
2022/02/20 10:51:25;;;;;;;3.03;1.07;;;10.80;99.90;;;;;;5003687;28;20445;-89
2022/02/20 10:53:54;;;;;;;3.27;0.90;;;10.80;99.90;;;;;;5008701;28;20551;-88
2022/02/20 10:59:54;;;;;;;2.30;0.60;;;10.80;99.90;;;;;;4961163;28;20450;-88
2022/02/20 11:08:31;;;;;;;3.33;0.90;;;11.10;99.90;;;;;;4973669;28;20418;-88
2022/02/20 11:11:41;;;;;;;2.80;0.80;;;11.20;99.90;;;;;;5002369;28;20527;-88
2022/02/20 11:14:13;;;;;;;2.53;0.70;;;11.10;99.90;;;;;;5011472;28;20481;-89
2022/02/20 11:16:49;;;;;;;6.47;0.80;;;11.00;99.90;;;;;;5009564;28;20459;-88
2022/02/20 11:19:19;;;;;;;2.60;0.93;;;11.00;99.90;;;;;;5006787;28;20506;-87
2022/02/20 11:21:49;;;;;;;2.47;0.77;;;11.10;99.90;;;;;;5006977;28;20467;-88
2022/02/20 11:24:37;;;;;;;2.30;0.63;;;11.10;99.90;;;;;;5009786;28;20507;-88
2022/02/20 11:27:33;;;;;;;2.83;1.00;;;11.20;99.90;;;;;;5009818;28;20476;-89
2022/02/20 11:37:02;;;;;;;2.80;0.60;;;11.10;99.90;;;;;;4988304;28;20443;-87
2022/02/20 11:42:40;;;;;;;2.83;1.10;;;11.10;99.90;;;;;;5007893;28;20486;-89
2022/02/20 11:45:17;;;;;;;2.77;0.80;;;11.30;99.90;;;;;;5009102;28;20444;-89
2022/02/20 11:47:46;;;;;;;3.00;0.93;;;11.30;99.90;;;;;;5050986;23;20516;-89
2022/02/20 11:55:52;;;;;;;3.20;0.60;;;11.20;99.90;;;;;;5020074;28;20413;-89
2022/02/20 11:58:58;;;;;;;3.93;0.80;;;11.10;99.90;;;;;;5029720;28;20450;-88
2022/02/20 12:01:29;;;;;;;2.90;0.80;;;11.10;99.90;;;;;;5038661;28;20411;-88
2022/02/20 12:04:07;;;;;;;2.80;0.80;;;11.00;99.90;;;;;;5031050;28;20474;-89
2022/02/20 12:06:50;;;;;;;3.40;0.83;;;11.20;99.90;;;;;;5028469;28;20878;-88
2022/02/20 12:09:41;;;;;;;2.63;0.60;;;11.20;99.90;;;;;;5027855;28;20475;-90
2022/02/20 12:12:34;;;;;;;2.97;0.73;;;11.20;99.90;;;;;;5033004;28;20415;-88
2022/02/20 12:15:25;;;;;;;3.20;0.90;;;11.30;99.90;;;;;;5028866;28;20486;-87
2022/02/20 12:18:02;;;;;;;2.97;0.70;;;11.40;99.90;;;;;;5032307;28;20946;-89
2022/02/20 12:23:26;;;;;;;2.20;0.70;;;11.30;99.90;;;;;;5087232;23;20999;-89
2022/02/20 12:26:33;;;;;;;2.87;0.87;;;11.30;99.90;;;;;;5029424;28;20450;-90
2022/02/20 12:29:19;;;;;;;2.60;0.80;;;11.30;99.90;;;;;;5032222;28;20469;-89
2022/02/20 12:32:16;;;;;;;2.70;0.90;;;11.30;99.90;;;;;;5030208;28;20576;-89
2022/02/20 12:35:19;;;;;;;3.23;0.80;;;11.40;99.90;;;;;;5027625;28;20505;-89
2022/02/20 12:37:48;;;;;;;2.60;0.80;;;11.40;99.90;;;;;;5032094;28;20464;-88
2022/02/20 12:40:42;;;;;;;2.90;0.90;;;11.30;99.90;;;;;;5036808;28;20455;-89
2022/02/20 12:43:14;;;;;;;4.07;1.00;;;11.30;99.90;;;;;;5034937;28;20474;-87
2022/02/20 12:45:44;;;;;;;2.90;0.87;;;11.40;99.90;;;;;;5034771;28;20565;-89
2022/02/20 12:48:29;;;;;;;2.70;1.00;;;11.40;99.90;;;;;;5268367;23;20494;-90
2022/02/20 12:50:59;;;;;;;9.73;2.53;;;11.50;99.90;;;;;;5034313;28;20477;-89
2022/02/20 12:53:31;;;;;;;4.13;1.07;;;11.60;99.90;;;;;;5038093;28;20446;-89
2022/02/20 13:04:09;;;;;;;2.80;1.23;;;11.80;99.90;;;;;;3714463;23;20631;-89
2022/02/20 13:09:25;;;;;;;2.70;0.70;;;11.60;99.90;;;;;;5168573;23;20444;-90
2022/02/20 13:11:53;;;;;;;2.83;0.97;;;11.70;99.90;;;;;;5033882;28;20485;-90
2022/02/20 13:14:21;;;;;;;5.43;1.67;;;11.70;99.90;;;;;;5034386;28;20477;-89
2022/02/20 13:16:54;;;;;;;2.83;0.77;;;11.80;99.90;;;;;;5032695;28;20774;-89
2022/02/20 13:19:36;;;;;;;2.50;0.80;;;11.90;99.90;;;;;;5029180;28;20437;-90
2022/02/20 13:22:13;;;;;;;2.80;1.03;;;11.70;99.90;;;;;;5029542;28;20448;-89
2022/02/20 13:25:08;;;;;;;4.40;0.90;;;11.80;99.90;;;;;;5093080;23;20485;-91
2022/02/20 13:28:01;;;;;;;3.50;0.83;;;11.80;99.90;;;;;;5088910;23;20514;-88
2022/02/20 13:30:32;;;;;;;2.53;0.70;;;11.80;99.90;;;;;;5029371;28;20489;-88
2022/02/20 13:33:51;;;;;;;3.07;0.70;;;11.80;99.90;;;;;;5029582;28;20433;-89
2022/02/20 13:39:19;;;;;;;3.00;0.90;;;11.80;99.90;;;;;;5237266;23;20481;-89
2022/02/20 13:42:09;;;;;;;4.20;1.10;;;11.70;99.90;;;;;;5607033;23;20493;-88
2022/02/20 13:49:53;;;;;;;3.00;0.90;;;11.70;99.90;;;;;;5026434;28;20485;-88
2022/02/20 13:52:37;;;;;;;3.00;1.27;;;11.70;99.90;;;;;;5029168;28;20435;-88
2022/02/20 13:55:34;;;;;;;2.50;0.70;;;11.60;99.90;;;;;;5008797;28;20459;-89
2022/02/20 14:20:22;;;;;;;2.57;0.90;;;11.40;99.90;;;;;;5033586;23;20550;-90
2022/02/20 14:25:18;;;;;;;2.73;0.80;;;11.40;99.90;;;;;;5005209;28;20532;-88
2022/02/20 14:28:00;;;;;;;2.90;0.83;;;11.50;99.90;;;;;;5006703;28;20471;-89
2022/02/20 14:30:39;;;;;;;4.03;0.93;;;11.60;99.90;;;;;;5005947;28;20475;-89
2022/02/20 14:33:23;;;;;;;3.63;0.90;;;11.60;99.90;;;;;;5007746;28;20482;-88
2022/02/20 14:36:06;;;;;;;3.70;1.13;;;11.60;99.90;;;;;;5006311;28;20466;-89
2022/02/20 14:39:01;;;;;;;2.40;0.87;;;11.60;99.90;;;;;;5011249;28;20523;-90
2022/02/20 14:41:44;;;;;;;2.67;0.73;;;11.70;99.90;;;;;;5006430;28;20991;-90
2022/02/20 14:54:24;;;;;;;2.50;0.70;;;11.60;99.90;;;;;;5474616;23;20509;-89
2022/02/20 14:57:41;;;;;;;2.40;0.70;;;11.70;99.90;;;;;;5034359;28;20450;-90
2022/02/20 15:44:19;;;;;;;2.87;1.03;;;11.30;99.90;;;;;;5296553;23;20497;-83
2022/02/20 15:46:46;;;;;;;2.70;0.80;;;11.40;99.90;;;;;;5046043;28;20866;-82
2022/02/20 15:49:13;;;;;;;2.73;1.03;;;11.50;99.90;;;;;;5049803;28;20451;-85
2022/02/20 15:51:43;;;;;;;3.20;0.90;;;11.40;99.90;;;;;;5048236;28;20561;-85
2022/02/20 15:54:10;;;;;;;3.80;0.90;;;11.50;99.90;;;;;;5044379;28;20477;-85
2022/02/20 15:56:37;;;;;;;3.57;0.60;;;11.40;99.90;;;;;;5042509;28;20452;-85
2022/02/20 15:59:04;;;;;;;3.00;1.00;;;11.40;99.90;;;;;;5044435;28;20499;-88
2022/02/20 16:01:33;;;;;;;2.70;0.80;;;11.30;99.90;;;;;;5042371;28;20527;-85
2022/02/20 16:04:00;;;;;;;2.93;0.80;;;11.30;99.90;;;;;;5043436;28;20515;-85
2022/02/20 16:06:27;;;;;;;2.43;0.73;;;11.30;99.90;;;;;;5043565;28;20503;-86
2022/02/20 16:08:56;;;;;;;3.90;1.30;;;11.30;99.90;;;;;;5044728;28;20487;-86
2022/02/20 16:11:23;;;;;;;4.60;0.70;;;11.20;99.90;;;;;;5043974;28;20487;-85
2022/02/20 16:13:50;;;;;;;3.07;1.03;;;11.20;99.90;;;;;;5043066;28;20448;-86
2022/02/20 16:16:18;;;;;;;2.70;0.90;;;11.20;99.90;;;;;;5043682;28;20457;-88
2022/02/20 16:18:49;;;;;;;2.73;1.00;;;11.20;99.90;;;;;;5046001;28;20465;-87
2022/02/20 16:21:16;;;;;;;2.40;0.70;;;11.20;99.90;;;;;;5046719;28;20492;-86
2022/02/20 16:23:44;;;;;;;2.73;0.73;;;11.20;99.90;;;;;;5047920;28;20530;-87
2022/02/20 16:26:11;;;;;;;2.40;0.80;;;11.10;99.90;;;;;;5048479;28;20449;-86
2022/02/20 16:28:38;;;;;;;3.87;0.90;;;11.10;99.90;;;;;;5047701;28;20474;-85
2022/02/20 16:31:06;;;;;;;3.63;1.00;;;11.10;99.90;;;;;;5043679;28;20488;-86
2022/02/20 16:33:35;;;;;;;4.10;1.00;;;11.10;99.90;;;;;;5043524;28;20820;-86
2022/02/20 16:36:04;;;;;;;3.27;0.70;;;11.00;99.90;;;;;;5043269;28;20444;-86
2022/02/20 16:38:32;;;;;;;2.77;0.77;;;11.00;99.90;;;;;;5044582;28;20445;-85
2022/02/20 16:40:59;;;;;;;4.67;0.80;;;10.90;99.90;;;;;;5046734;28;20445;-86
2022/02/20 16:43:29;;;;;;;4.80;1.23;;;10.80;99.90;;;;;;5048720;28;20545;-88
2022/02/20 16:45:56;;;;;;;3.33;1.20;;;10.80;99.90;;;;;;5045370;28;20514;-87
2022/02/20 16:48:25;;;;;;;6.20;0.90;;;10.80;99.90;;;;;;5045150;28;20942;-86
2022/02/20 16:50:55;;;;;;;2.70;0.90;;;10.70;99.90;;;;;;5045876;28;20481;-87
2022/02/20 16:53:28;;;;;;;2.70;1.00;;;10.80;99.90;;;;;;5043854;28;20481;-86
2022/02/20 16:55:55;;;;;;;3.10;1.07;;;10.80;99.90;;;;;;5044522;28;20441;-88
2022/02/20 16:58:22;;;;;;;4.40;1.43;;;10.80;99.90;;;;;;5045748;28;20488;-86
2022/02/20 17:00:52;;;;;;;3.30;1.60;;;10.90;99.90;;;;;;5045730;28;20476;-87
2022/02/20 17:03:19;;;;;;;2.90;1.00;;;10.80;99.90;;;;;;5050374;28;20566;-88
2022/02/20 17:05:47;;;;;;;3.57;1.30;;;10.90;99.90;;;;;;5054628;28;20473;-88
2022/02/20 17:08:18;;;;;;;4.20;1.10;;;10.80;99.90;;;;;;5052087;28;20419;-88
2022/02/20 17:10:46;;;;;;;2.17;0.63;;;10.90;99.90;;;;;;5049943;28;20985;-88
2022/02/20 17:13:14;;;;;;;4.20;1.30;;;10.90;99.90;;;;;;5048904;28;20453;-88
2022/02/20 17:15:41;;;;;;;3.33;0.90;;;10.90;99.90;;;;;;5046737;28;20453;-85
2022/02/20 17:18:08;;;;;;;3.60;1.20;;;10.90;99.90;;;;;;5045697;28;20454;-86
2022/02/20 17:20:35;;;;;;;2.83;1.20;;;10.90;99.90;;;;;;5045877;28;20456;-86
2022/02/20 17:23:02;;;;;;;2.80;1.07;;;10.80;99.90;;;;;;5045233;28;21014;-86
2022/02/20 17:25:29;;;;;;;3.43;1.30;;;10.90;99.90;;;;;;5050119;28;20433;-86
2022/02/20 17:27:58;;;;;;;4.30;1.40;;;10.90;99.90;;;;;;5056953;28;20505;-86
2022/02/20 17:30:25;;;;;;;3.53;0.87;;;11.00;99.90;;;;;;5053128;28;20497;-86
2022/02/20 17:32:52;;;;;;;3.33;1.23;;;11.00;99.90;;;;;;5047429;28;20485;-85
2022/02/20 17:35:19;;;;;;;3.90;1.30;;;11.00;99.90;;;;;;5054688;28;20545;-85
2022/02/20 17:37:47;;;;;;;4.50;1.50;;;11.00;99.90;;;;;;5056472;28;20504;-86
2022/02/20 17:40:15;;;;;;;3.10;0.80;;;11.00;99.90;;;;;;5050709;28;20452;-86
2022/02/20 17:42:44;;;;;;;2.70;1.00;;;11.00;99.90;;;;;;5046765;28;20581;-86
2022/02/20 17:45:19;;;;;;;3.20;0.80;;;11.00;99.90;;;;;;5044598;28;20451;-86
2022/02/20 17:47:46;;;;;;;3.07;0.70;;;11.00;99.90;;;;;;5045581;28;20412;-86
2022/02/20 17:50:17;;;;;;;3.37;0.90;;;11.00;99.90;;;;;;5043892;28;20886;-86
2022/02/20 17:52:44;;;;;;;3.10;0.93;;;11.10;99.90;;;;;;5043696;28;20601;-86
2022/02/20 17:55:11;;;;;;;3.07;0.90;;;11.00;99.90;;;;;;5044612;28;20477;-86
2022/02/20 17:57:38;;;;;;;3.03;1.43;;;11.00;99.90;;;;;;5045086;28;20501;-87
2022/02/20 18:00:06;;;;;;;2.60;0.93;;;10.90;99.90;;;;;;5042000;28;20465;-86
2022/02/20 18:02:34;;;;;;;2.73;1.00;;;10.90;99.90;;;;;;5041124;28;20453;-86
2022/02/20 18:05:02;;;;;;;3.40;1.30;;;10.80;99.90;;;;;;5040820;28;20469;-86
2022/02/20 18:07:29;;;;;;;3.40;1.13;;;10.80;99.90;;;;;;5045435;28;20450;-86
2022/02/20 18:09:56;;;;;;;2.60;0.73;;;10.70;99.90;;;;;;5052880;28;20463;-86
2022/02/20 18:12:25;;;;;;;3.13;1.20;;;10.60;99.90;;;;;;5048460;28;20455;-85
2022/02/20 18:14:52;;;;;;;2.60;1.00;;;10.70;99.90;;;;;;5047995;28;20463;-87
2022/02/20 18:17:20;;;;;;;2.50;0.80;;;10.70;99.90;;;;;;5048470;28;20482;-88
2022/02/20 18:19:50;;;;;;;3.13;0.80;;;10.80;99.90;;;;;;5048021;28;20420;-87
2022/02/20 18:22:17;;;;;;;3.03;1.00;;;10.80;99.90;;;;;;5048471;28;20456;-87
2022/02/20 18:24:45;;;;;;;5.83;1.30;;;10.90;99.90;;;;;;5049032;28;20488;-86
2022/02/20 18:27:12;;;;;;;2.70;0.70;;;10.90;99.90;;;;;;5049629;28;20427;-87
2022/02/20 18:29:43;;;;;;;2.70;0.93;;;10.80;99.90;;;;;;5048346;28;20464;-87
2022/02/20 18:32:10;;;;;;;3.30;1.00;;;10.80;99.90;;;;;;5045362;28;20957;-86
2022/02/20 18:34:42;;;;;;;3.37;1.07;;;10.80;99.90;;;;;;5042489;28;20478;-86
2022/02/20 18:37:13;;;;;;;5.10;1.00;;;10.80;99.90;;;;;;5042512;28;20476;-85
2022/02/20 18:39:40;;;;;;;2.87;0.80;;;10.80;99.90;;;;;;5049359;28;20878;-85
2022/02/20 18:42:09;;;;;;;3.30;1.13;;;10.70;99.90;;;;;;5041215;28;20544;-86
2022/02/20 18:44:36;;;;;;;2.70;1.30;;;10.70;99.90;;;;;;5044988;28;20500;-85
2022/02/20 18:47:04;;;;;;;3.10;0.93;;;10.80;99.90;;;;;;5043555;28;20515;-85
2022/02/20 18:49:32;;;;;;;2.60;0.70;;;10.80;99.90;;;;;;5044598;28;20429;-86
2022/02/20 18:52:00;;;;;;;4.37;1.57;;;10.80;99.90;;;;;;5042296;28;20485;-87
2022/02/20 18:54:28;;;;;;;2.67;1.10;;;10.80;99.90;;;;;;5043374;28;20451;-87